Juneau, AK (99801)

12:22 PM AKST on December 07, 2016 (GMT -0900)
MesoWest | | Change Station
Active Advisory: Winter Storm Warning

Elev 88 ft 58.40 °N, 134.57 °W | Updated 42 minutes ago

Snow
Snow Freezing Fog
25 °F
Feels Like 25 °F
N
0
Wind Variable Wind from North
Gusts 0.0 mph

Today
High -- | Low -- °F
--% Chance of Precip.
Yesterday
High -- | Low -- °F
Precip. -- in
Pressure 30.39 in
Visibility 0.5 miles
Clouds
Windchill 25 °F
Dew Point 24 °F
Humidity 96%
Rainfall in
Snow Depth Not available.
8:31 AM 3:07 PM
First Quarter, 56% visible
METAR PAJN 072053Z 13016KT 1/2SM R08/4000V5000FT SN FZFG VV012 M04/M06 A3039 RMK AO2 SLP291 P0001 60005 T10391056 50004
Pressure 30.39 in
Visibility 0.5 miles
Clouds
Windchill 25 °F
Dew Point 24 °F
Humidity 96%
Rainfall in
Snow Depth Not available.
8:31 AM 3:07 PM
First Quarter, 56% visible
METAR PAJN 072053Z 13016KT 1/2SM R08/4000V5000FT SN FZFG VV012 M04/M06 A3039 RMK AO2 SLP291 P0001 60005 T10391056 50004

10-Day Weather Forecast

Almanac

Astronomy

Dec. 07, 2016 Rise Set
Actual Time
Civil Twilight
Nautical Twilight
Astronomical Twilight
Moon
Length of Visible Light
Length of Day
Tomorrow will be .
, % of the Moon is Illuminated

Today's Extremes

State Highs State Lows

Community

WunderPhotos

Upload Photos

1,956,181 photos uploaded!

WunderBlog® & News

Nearby

Air Quality

  Air Quality AQ Index Pollutant
Not available.

Snow Depth

Station Depth Elevation

Earthquake Activity

City Distance Mag. Time & Date
Minimum magnitude displayed is 2.5.

Coastal Water Temperatures

Place Temperature

Stations

Nearby Weather Stations

Station Location Temp. Windchill Dew Point Humidity Wind Precip. Elev Updated Type
                   

Watches & Warnings

Winter Storm Warning
Issued: 11:31 AM AKST Dec. 7, 2016 – National Weather Service

... Winter Storm Warning remains in effect until 9 PM akst this
evening...

* location... Juneau... Gustavus... Elfin Cove... and Pelican.

* Snow... snow accumulations of around 6 to 15 inches were
observed around the area as of Wednesday morning. Total snow
accumulation of 10 to 17 inches expected through Wednesday
night.

* Timing... snow will continue through Wednesday before tapering
off late Wednesday night.

* Impacts... travel may be hazardous. There will be periods of
reduced visibility through Wednesday night.

Precautionary/preparedness actions...

A warning means that a winter storm is already occurring or
imminent. This storm could pose a threat to life and property.

This statement will be updated by 6 PM akst Wednesday or sooner
if conditions warrant.